Adiyaman, Turkey

10:00 PM EEST on October 24, 2014 (GMT +0300)
SANLIURFA GAP | Change Station
CLOSE
Current Station
Airport
Location: SANLIURFA GAP,
Elevation: 2707 ft
Nearby Weather Stations

Elev 2707 ft 37.45 °N, 38.90 °E | Updated 40 minutes ago

Clear
Clear
61 °F
Feels Like 61 °F
N
6
Wind Variable Wind from West

Today
High -- | Low -- °F
--% Chance of Precip.
Yesterday
High -- | Low -- °F
Precip. -- in
6:43 AM 5:37 PM
New Moon, 1% visible
Pressure 30.12 in
Visibility -9999.0 miles
Clouds
Dew Point 45 °F
Humidity 55%
Rainfall 0.00 in
Snow Depth Not available.
UV Not available.
Pollen Not available.
Air Quality Not available.
Flu Activity Not available.
METAR LTCS 241820Z 28005KT CAVOK 16/07 Q1020

More Conditions Fewer Conditions

Pressure 30.12 in
Visibility -9999.0 miles
Clouds
Dew Point 45 °F
Humidity 55%
Rainfall 0.00 in
Snow Depth Not available.
UV Not available.
Pollen Not available.
Air Quality Not available.
Flu Activity Not available.
METAR LTCS 241820Z 28005KT CAVOK 16/07 Q1020

More Conditions Fewer Conditions

10-Day Weather Forecast

Almanac

Astronomy

Oct. 24, 2014 Rise Set
Actual Time 6:43 AM EEST 5:37 PM EEST
Civil Twilight 6:16 AM EEST 6:04 PM EEST
Nautical Twilight 5:46 AM EEST 6:35 PM EEST
Astronomical Twilight 5:15 AM EEST 7:05 PM EEST
Moon 7:01 AM EEST 6:04 PM EEST
Length of Visible Light 11h 47m
Length of Day
10h 54m
Tomorrow will be 2m 15s shorter.
New Moon, 1% of the Moon is Illuminated
Today
New Moon
Oct 30
First Quarter
Nov 6
Full
Nov 14
Last Quarter
Nov 22
New

Today's Extremes

Country Highs Country Lows

Community

WunderPhotos

Upload Photos

1,764,636 photos uploaded!

Nearby

Snow Depth

Not available.

Earthquake Activity

City Distance Mag. Time & Date
No recent earthquake activity has been reported nearby.
Minimum magnitude displayed is 2.5.

Coastal Water Temperatures

Place Temperature
No Stations Reporting

Nearby Weather Stations